createdAt,value
2022-12-31T00:01:29.658Z,98075.81
2022-12-31T00:03:57.094Z,98069.91
2022-12-31T00:06:29.823Z,98069.78
2022-12-31T00:08:57.708Z,98067.88
2022-12-31T00:11:24.529Z,98069.50
2022-12-31T00:13:51.408Z,98072.44
2022-12-31T00:16:23.743Z,98079.50
2022-12-31T00:18:52.816Z,98076.56
2022-12-31T00:21:19.970Z,98084.94
2022-12-31T00:23:46.749Z,98083.44
2022-12-31T00:26:16.483Z,98083.16
2022-12-31T00:28:43.716Z,98080.38
2022-12-31T00:31:14.754Z,98075.81
2022-12-31T00:33:41.763Z,98078.75
2022-12-31T00:36:10.016Z,98085.38
2022-12-31T00:38:37.410Z,98097.09
2022-12-31T00:41:04.921Z,98095.03
2022-12-31T00:43:34.777Z,98093.38
2022-12-31T00:46:02.916Z,98098.09
2022-12-31T00:48:29.557Z,98100.00
2022-12-31T00:50:56.408Z,98100.28
2022-12-31T00:53:23.462Z,98092.50
2022-12-31T00:55:50.358Z,98100.84
2022-12-31T00:58:16.863Z,98118.50
2022-12-31T01:00:44.217Z,98112.47
2022-12-31T01:03:10.785Z,98118.50
2022-12-31T01:05:37.575Z,98126.44
2022-12-31T01:08:06.379Z,98132.72
2022-12-31T01:10:51.524Z,98128.88
2022-12-31T01:13:18.161Z,98141.25
2022-12-31T01:15:44.765Z,98140.91
2022-12-31T01:18:11.958Z,98145.22
2022-12-31T01:20:41.240Z,98155.78
2022-12-31T01:23:09.028Z,98151.22
2022-12-31T01:25:36.518Z,98158.47
2022-12-31T01:28:04.260Z,98162.09
2022-12-31T01:30:31.132Z,98174.69
2022-12-31T01:32:57.682Z,98169.16
2022-12-31T01:35:24.574Z,98180.44
2022-12-31T01:37:51.337Z,98181.31
2022-12-31T01:40:17.882Z,98177.81
2022-12-31T01:42:44.360Z,98186.16
2022-12-31T01:45:13.595Z,98180.16
2022-12-31T01:47:45.645Z,98180.34
2022-12-31T01:50:17.216Z,98192.97
2022-12-31T01:52:55.587Z,98189.09
2022-12-31T01:55:34.499Z,98186.63
2022-12-31T01:58:06.817Z,98186.19
2022-12-31T02:00:34.205Z,98192.53
2022-12-31T02:03:00.823Z,98190.47
2022-12-31T02:05:33.406Z,98193.69
2022-12-31T02:07:59.958Z,98197.94
2022-12-31T02:10:26.543Z,98207.50
2022-12-31T02:12:53.041Z,98192.06
2022-12-31T02:15:23.150Z,98197.97
2022-12-31T02:18:09.996Z,98197.13
2022-12-31T02:21:08.044Z,98203.41
2022-12-31T02:23:50.092Z,98211.03
2022-12-31T02:26:16.468Z,98211.66
2022-12-31T02:29:27.384Z,98208.53
2022-12-31T02:32:12.691Z,98215.88
2022-12-31T02:34:47.804Z,98208.41
2022-12-31T02:37:15.386Z,98210.72
2022-12-31T02:39:43.357Z,98207.31
2022-12-31T02:42:10.829Z,98206.53
2022-12-31T02:44:39.034Z,98203.75
2022-12-31T02:47:08.556Z,98205.81
2022-12-31T02:50:12.447Z,98200.34
2022-12-31T02:52:51.168Z,98185.50
2022-12-31T02:55:49.480Z,98187.91
2022-12-31T02:59:01.403Z,98189.41
2022-12-31T03:01:54.213Z,98185.91
2022-12-31T03:04:34.447Z,98186.63
2022-12-31T03:07:12.169Z,98185.34
2022-12-31T03:09:39.213Z,98185.50
2022-12-31T03:12:27.747Z,98196.22
2022-12-31T03:14:54.296Z,98183.16
2022-12-31T03:17:20.969Z,98194.16
2022-12-31T03:20:23.402Z,98192.84
2022-12-31T03:22:49.921Z,98199.91
2022-12-31T03:25:37.884Z,98199.16
2022-12-31T03:28:10.275Z,98197.97
2022-12-31T03:30:39.912Z,98196.66
2022-12-31T03:33:07.134Z,98203.41
2022-12-31T03:35:35.767Z,98201.66
2022-12-31T03:38:03.073Z,98213.13
2022-12-31T03:40:31.054Z,98217.53
2022-12-31T03:42:57.731Z,98219.44
2022-12-31T03:45:24.296Z,98224.25
2022-12-31T03:47:50.817Z,98229.25
2022-12-31T03:50:18.735Z,98231.88
2022-12-31T03:52:45.276Z,98237.03
2022-12-31T03:55:12.403Z,98231.88
2022-12-31T03:57:39.116Z,98235.41
2022-12-31T04:00:07.778Z,98224.75
2022-12-31T04:02:34.448Z,98224.75
2022-12-31T04:05:01.082Z,98229.13
2022-12-31T04:07:27.636Z,98230.16
2022-12-31T04:09:54.186Z,98226.50
2022-12-31T04:12:20.694Z,98233.25
2022-12-31T04:14:47.237Z,98228.78
2022-12-31T04:17:13.879Z,98235.59
2022-12-31T04:19:40.719Z,98241.72
2022-12-31T04:22:07.311Z,98241.72
2022-12-31T04:24:33.852Z,98236.66
2022-12-31T04:27:07.080Z,98226.13
2022-12-31T04:29:34.169Z,98237.34
2022-12-31T04:32:00.891Z,98237.47
2022-12-31T04:34:27.580Z,98236.09
2022-12-31T04:36:54.095Z,98232.63
2022-12-31T04:39:20.705Z,98239.72
2022-12-31T04:41:47.220Z,98243.88
2022-12-31T04:44:13.678Z,98239.34
2022-12-31T04:46:40.206Z,98249.63
2022-12-31T04:49:07.708Z,98251.31
2022-12-31T04:51:34.330Z,98249.75
2022-12-31T04:54:01.269Z,98258.63
2022-12-31T04:56:28.223Z,98257.66
2022-12-31T04:58:55.069Z,98260.59
2022-12-31T05:01:21.911Z,98256.91
2022-12-31T05:03:48.797Z,98266.34
2022-12-31T05:06:18.274Z,98268.53
2022-12-31T05:08:44.936Z,98265.00
2022-12-31T05:11:11.584Z,98258.47
2022-12-31T05:13:38.737Z,98260.59
2022-12-31T05:16:05.869Z,98255.59
2022-12-31T05:18:32.976Z,98262.13
2022-12-31T05:20:59.632Z,98262.75
2022-12-31T05:23:26.345Z,98271.56
2022-12-31T05:25:53.380Z,98264.50
2022-12-31T05:28:20.529Z,98275.97
2022-12-31T05:30:50.881Z,98273.75
2022-12-31T05:33:18.429Z,98270.63
2022-12-31T05:35:45.207Z,98273.59
2022-12-31T05:38:11.736Z,98277.72
2022-12-31T05:40:38.260Z,98282.41
2022-12-31T05:43:04.765Z,98281.97
2022-12-31T05:45:31.584Z,98290.94
2022-12-31T05:47:58.408Z,98289.34
2022-12-31T05:50:25.084Z,98288.31
2022-12-31T05:52:56.006Z,98287.69
2022-12-31T05:55:22.637Z,98294.59
2022-12-31T05:57:49.179Z,98284.88
2022-12-31T06:00:15.964Z,98291.97
2022-12-31T06:02:42.493Z,98297.09
2022-12-31T06:05:09.241Z,98286.94
2022-12-31T06:07:35.763Z,98285.81
2022-12-31T06:10:04.547Z,98298.56
2022-12-31T06:12:31.097Z,98294.16
2022-12-31T06:14:57.601Z,98295.63
2022-12-31T06:17:24.337Z,98295.31
2022-12-31T06:19:50.876Z,98302.25
2022-12-31T06:22:17.544Z,98295.31
2022-12-31T06:24:44.131Z,98300.72
2022-12-31T06:27:10.747Z,98299.75
2022-12-31T06:29:37.370Z,98302.53
2022-12-31T06:32:04.094Z,98311.75
2022-12-31T06:34:30.631Z,98313.84
2022-12-31T06:36:57.480Z,98326.22
2022-12-31T06:39:24.001Z,98324.53
2022-12-31T06:41:50.612Z,98326.50
2022-12-31T06:44:17.100Z,98348.38
2022-12-31T06:46:43.633Z,98348.53
2022-12-31T06:49:10.384Z,98336.16
2022-12-31T06:51:36.892Z,98326.41
2022-12-31T06:54:03.423Z,98327.13
2022-12-31T06:56:34.459Z,98331.38
2022-12-31T06:59:01.971Z,98323.13
2022-12-31T07:01:51.440Z,98321.63
2022-12-31T07:04:49.774Z,98324.88
2022-12-31T07:07:35.257Z,98329.81
2022-12-31T07:10:59.857Z,98331.38
2022-12-31T07:13:49.332Z,98339.00
2022-12-31T07:16:40.618Z,98334.59
2022-12-31T07:19:32.301Z,98336.63
2022-12-31T07:22:00.203Z,98352.13
2022-12-31T07:24:27.123Z,98346.13
2022-12-31T07:27:11.611Z,98357.19
2022-12-31T07:30:05.384Z,98355.84
2022-12-31T07:33:12.025Z,98353.38
2022-12-31T07:36:01.393Z,98349.28
2022-12-31T07:38:55.902Z,98344.94
2022-12-31T07:41:34.798Z,98340.41
2022-12-31T07:44:17.109Z,98347.00
2022-12-31T07:46:56.701Z,98360.44
2022-12-31T07:49:24.908Z,98351.66
2022-12-31T07:51:51.981Z,98351.34
2022-12-31T07:54:19.141Z,98348.09
2022-12-31T07:56:46.545Z,98354.88
2022-12-31T07:59:46.158Z,98359.59
2022-12-31T08:02:21.752Z,98373.75
2022-12-31T08:04:59.705Z,98373.78
2022-12-31T08:07:48.475Z,98383.97
2022-12-31T08:10:27.225Z,98386.06
2022-12-31T08:13:01.719Z,98396.97
2022-12-31T08:15:30.761Z,98394.59
2022-12-31T08:17:57.787Z,98394.13
2022-12-31T08:20:25.622Z,98399.06
2022-12-31T08:23:11.182Z,98393.88
2022-12-31T08:25:45.279Z,98397.56
2022-12-31T08:28:19.828Z,98398.66
2022-12-31T08:31:10.919Z,98409.13
2022-12-31T08:33:44.962Z,98397.94
2022-12-31T08:36:23.047Z,98393.44
2022-12-31T08:38:58.204Z,98396.13
2022-12-31T08:41:45.626Z,98399.19
2022-12-31T08:44:33.594Z,98410.75
2022-12-31T08:47:03.298Z,98407.94
2022-12-31T08:49:33.066Z,98409.03
2022-12-31T08:52:01.075Z,98420.63
2022-12-31T08:54:28.319Z,98423.69
2022-12-31T08:57:04.667Z,98433.16
2022-12-31T08:59:44.172Z,98439.50
2022-12-31T09:02:48.586Z,98442.16
2022-12-31T09:05:25.866Z,98449.38
2022-12-31T09:08:46.511Z,98446.81
2022-12-31T09:11:22.852Z,98447.69
2022-12-31T09:14:03.979Z,98436.63
2022-12-31T09:16:41.964Z,98448.69
2022-12-31T09:19:10.055Z,98449.69
2022-12-31T09:21:38.237Z,98453.63
2022-12-31T09:24:09.361Z,98441.81
2022-12-31T09:27:06.612Z,98442.75
2022-12-31T09:29:45.012Z,98439.81
2022-12-31T09:32:45.841Z,98438.72
2022-12-31T09:35:36.370Z,98437.63
2022-12-31T09:38:23.098Z,98437.75
2022-12-31T09:41:30.220Z,98448.06
2022-12-31T09:44:28.825Z,98450.13
2022-12-31T09:47:10.154Z,98458.06
2022-12-31T09:49:51.312Z,98448.91
2022-12-31T09:52:36.112Z,98444.88
2022-12-31T09:55:21.571Z,98456.13
2022-12-31T09:58:00.278Z,98447.69
2022-12-31T10:00:40.253Z,98446.13
2022-12-31T10:03:18.924Z,98439.13
2022-12-31T10:06:27.200Z,98444.25
2022-12-31T10:09:13.391Z,98446.09
2022-12-31T10:12:26.652Z,98443.38
2022-12-31T10:15:12.696Z,98437.84
2022-12-31T10:18:06.999Z,98443.47
2022-12-31T10:21:01.358Z,98439.72
2022-12-31T10:24:05.138Z,98434.09
2022-12-31T10:26:52.904Z,98442.38
2022-12-31T10:29:31.880Z,98428.66
2022-12-31T10:32:20.068Z,98443.72
2022-12-31T10:35:12.105Z,98438.88
2022-12-31T10:38:17.658Z,98445.31
2022-12-31T10:41:10.235Z,98444.88
2022-12-31T10:43:45.933Z,98449.53
2022-12-31T10:46:30.687Z,98427.47
2022-12-31T10:49:41.104Z,98423.91
2022-12-31T10:52:25.005Z,98434.41
2022-12-31T10:55:18.847Z,98425.44
2022-12-31T10:58:11.209Z,98435.56
2022-12-31T11:00:52.173Z,98430.34
2022-12-31T11:03:39.909Z,98431.81
2022-12-31T11:06:26.133Z,98425.91
2022-12-31T11:09:14.781Z,98415.22
2022-12-31T11:12:05.121Z,98426.44
2022-12-31T11:14:59.564Z,98419.66
2022-12-31T11:17:53.629Z,98416.75
2022-12-31T11:20:25.669Z,98406.50
2022-12-31T11:23:15.217Z,98408.28
2022-12-31T11:26:16.008Z,98415.59
2022-12-31T11:28:45.587Z,98408.19
2022-12-31T11:31:31.045Z,98423.63
2022-12-31T11:34:18.711Z,98408.53
2022-12-31T11:36:54.538Z,98399.41
2022-12-31T11:39:39.430Z,98398.50
2022-12-31T11:42:18.206Z,98405.50
2022-12-31T11:45:13.290Z,98400.31
2022-12-31T11:51:11.909Z,98395.09
2022-12-31T11:53:57.492Z,98397.47
2022-12-31T11:56:26.114Z,98389.78
2022-12-31T11:58:54.213Z,98382.84
2022-12-31T12:01:47.995Z,98377.34
2022-12-31T12:04:14.738Z,98370.22
2022-12-31T12:06:42.805Z,98373.81
2022-12-31T12:09:27.091Z,98374.00
2022-12-31T12:12:04.923Z,98366.19
2022-12-31T12:14:38.010Z,98378.81
2022-12-31T12:17:09.542Z,98365.56
2022-12-31T12:19:42.827Z,98367.97
2022-12-31T12:22:19.730Z,98369.84
2022-12-31T12:25:03.631Z,98370.47
2022-12-31T12:27:32.389Z,98372.97
2022-12-31T12:30:24.651Z,98364.13
2022-12-31T12:33:01.863Z,98363.06
2022-12-31T12:35:31.786Z,98359.41
2022-12-31T12:38:06.787Z,98353.34
2022-12-31T12:40:35.133Z,98352.94
2022-12-31T12:43:02.861Z,98343.88
2022-12-31T12:45:38.316Z,98344.69
2022-12-31T12:48:18.412Z,98346.16
2022-12-31T12:50:46.275Z,98355.47
2022-12-31T12:53:37.588Z,98353.66
2022-12-31T12:56:15.307Z,98340.94
2022-12-31T12:58:57.148Z,98339.38
2022-12-31T13:01:52.351Z,98337.19
2022-12-31T13:04:44.816Z,98346.78
2022-12-31T13:07:38.018Z,98338.34
2022-12-31T13:10:07.608Z,98337.19
2022-12-31T13:13:13.899Z,98331.34
2022-12-31T13:15:42.767Z,98346.06
2022-12-31T13:18:31.403Z,98343.41
2022-12-31T13:21:04.344Z,98345.72
2022-12-31T13:23:42.424Z,98339.81
2022-12-31T13:26:27.737Z,98336.22
2022-12-31T13:28:55.369Z,98324.78
2022-12-31T13:31:26.674Z,98319.56
2022-12-31T13:33:58.746Z,98330.28
2022-12-31T13:36:27.785Z,98329.47
2022-12-31T13:38:56.226Z,98322.59
2022-12-31T13:41:35.083Z,98319.56
2022-12-31T13:44:36.621Z,98316.13
2022-12-31T13:47:10.695Z,98318.94
2022-12-31T13:49:44.661Z,98316.22
2022-12-31T13:52:31.081Z,98310.31
2022-12-31T13:55:21.569Z,98313.72
2022-12-31T13:57:52.670Z,98314.66
2022-12-31T14:00:27.269Z,98314.97
2022-12-31T14:03:08.955Z,98318.59
2022-12-31T14:05:40.542Z,98316.94
2022-12-31T14:08:07.205Z,98317.22
2022-12-31T14:10:39.776Z,98316.69
2022-12-31T14:13:21.656Z,98312.13
2022-12-31T14:16:08.404Z,98312.50
2022-12-31T14:18:52.770Z,98314.72
2022-12-31T14:21:25.635Z,98304.91
2022-12-31T14:24:10.006Z,98312.16
2022-12-31T14:26:41.941Z,98310.09
2022-12-31T14:29:29.181Z,98311.59
2022-12-31T14:32:03.746Z,98318.69
2022-12-31T14:34:41.198Z,98329.66
2022-12-31T14:37:12.999Z,98318.81
2022-12-31T14:39:55.170Z,98331.91
2022-12-31T14:42:37.996Z,98331.19
2022-12-31T14:45:29.125Z,98328.69
2022-12-31T14:48:22.253Z,98333.22
2022-12-31T14:50:48.896Z,98325.91
2022-12-31T14:53:22.401Z,98329.06
2022-12-31T14:55:57.989Z,98342.22
2022-12-31T14:58:37.423Z,98335.44
2022-12-31T15:01:19.839Z,98338.34
2022-12-31T15:03:46.638Z,98339.63
2022-12-31T15:06:34.135Z,98331.69
2022-12-31T15:09:20.729Z,98331.34
2022-12-31T15:12:38.153Z,98334.03
2022-12-31T15:15:16.570Z,98340.03
2022-12-31T15:18:07.516Z,98344.53
2022-12-31T15:21:00.939Z,98332.81
2022-12-31T15:23:42.367Z,98338.09
2022-12-31T15:26:23.950Z,98339.75
2022-12-31T15:29:23.781Z,98350.13
2022-12-31T15:31:50.803Z,98350.31
2022-12-31T15:34:36.771Z,98346.53
2022-12-31T15:37:06.503Z,98344.84
2022-12-31T15:39:32.937Z,98351.31
2022-12-31T15:44:55.438Z,98356.72
2022-12-31T15:47:30.849Z,98357.81
2022-12-31T15:50:00.504Z,98352.31
2022-12-31T15:52:42.882Z,98348.41
2022-12-31T15:55:20.281Z,98361.69
2022-12-31T15:57:47.198Z,98360.47
2022-12-31T16:00:21.925Z,98361.50
2022-12-31T16:02:52.228Z,98365.72
2022-12-31T16:05:21.579Z,98374.22
2022-12-31T16:07:48.693Z,98367.84
2022-12-31T16:10:20.582Z,98370.44
2022-12-31T16:12:47.322Z,98373.50
2022-12-31T16:15:20.903Z,98375.53
2022-12-31T16:17:58.615Z,98380.59
2022-12-31T16:20:30.113Z,98374.22
2022-12-31T16:22:57.541Z,98384.69
2022-12-31T16:25:33.168Z,98386.78
2022-12-31T16:28:01.861Z,98376.88
2022-12-31T16:30:30.791Z,98376.78
2022-12-31T16:33:04.183Z,98370.00
2022-12-31T16:35:39.082Z,98375.41
2022-12-31T16:38:15.621Z,98377.63
2022-12-31T16:40:44.434Z,98368.78
2022-12-31T16:43:24.378Z,98363.75
2022-12-31T16:45:51.859Z,98372.50
2022-12-31T16:48:19.780Z,98371.63
2022-12-31T16:50:52.523Z,98374.75
2022-12-31T16:53:21.400Z,98372.09
2022-12-31T16:55:56.471Z,98371.31
2022-12-31T16:58:29.976Z,98375.78
2022-12-31T17:01:15.750Z,98374.75
2022-12-31T17:03:45.629Z,98363.03
2022-12-31T17:06:15.410Z,98368.63
2022-12-31T17:09:14.558Z,98374.25
2022-12-31T17:11:53.332Z,98362.31
2022-12-31T17:14:23.212Z,98375.63
2022-12-31T17:17:03.319Z,98364.44
2022-12-31T17:19:36.321Z,98379.19
2022-12-31T17:22:04.508Z,98377.78
2022-12-31T17:24:31.570Z,98383.25
2022-12-31T17:27:04.812Z,98382.94
2022-12-31T17:29:31.542Z,98388.06
2022-12-31T17:32:02.187Z,98388.84
2022-12-31T17:34:34.318Z,98386.91
2022-12-31T17:37:06.854Z,98385.78
2022-12-31T17:39:54.489Z,98392.50
2022-12-31T17:42:28.393Z,98393.00
2022-12-31T17:45:00.220Z,98388.00
2022-12-31T17:47:33.920Z,98392.44
2022-12-31T17:50:06.087Z,98400.53
2022-12-31T17:52:32.871Z,98397.84
2022-12-31T17:54:59.563Z,98405.72
2022-12-31T17:57:27.786Z,98403.69
2022-12-31T17:59:54.622Z,98415.53
2022-12-31T18:02:21.423Z,98410.00
2022-12-31T18:04:48.089Z,98410.50
2022-12-31T18:07:14.721Z,98403.94
2022-12-31T18:09:41.327Z,98411.84
2022-12-31T18:12:08.349Z,98403.88
2022-12-31T18:14:35.063Z,98406.97
2022-12-31T18:17:01.844Z,98402.03
2022-12-31T18:22:16.216Z,98403.56
2022-12-31T18:24:43.680Z,98403.56
2022-12-31T18:27:16.397Z,98409.84
2022-12-31T18:29:43.551Z,98409.72
2022-12-31T18:32:30.492Z,98418.56
2022-12-31T18:34:57.032Z,98416.00
2022-12-31T18:37:25.263Z,98417.69
2022-12-31T18:39:52.117Z,98419.59
2022-12-31T18:42:19.292Z,98429.50
2022-12-31T18:44:46.178Z,98421.19
2022-12-31T18:47:18.534Z,98426.06
2022-12-31T18:49:45.658Z,98419.75
2022-12-31T18:52:21.379Z,98431.13
2022-12-31T18:54:48.775Z,98422.75
2022-12-31T18:57:15.997Z,98427.28
2022-12-31T18:59:42.974Z,98433.59
2022-12-31T19:02:18.549Z,98428.88
2022-12-31T19:04:45.457Z,98432.28
2022-12-31T19:07:12.077Z,98426.56
2022-12-31T19:09:47.184Z,98439.78
2022-12-31T19:12:15.261Z,98427.44
2022-12-31T19:14:41.825Z,98438.47
2022-12-31T19:19:34.740Z,98444.22
2022-12-31T19:22:01.597Z,98435.09
2022-12-31T19:24:28.461Z,98448.75
2022-12-31T19:26:55.262Z,98456.13
2022-12-31T19:29:27.013Z,98448.91
2022-12-31T19:31:53.730Z,98459.06
2022-12-31T19:34:20.785Z,98449.78
2022-12-31T19:36:47.436Z,98451.56
2022-12-31T19:39:18.845Z,98456.16
2022-12-31T19:41:46.049Z,98457.00
2022-12-31T19:44:17.486Z,98457.31
2022-12-31T19:46:44.834Z,98457.75
2022-12-31T19:49:12.725Z,98467.44
2022-12-31T19:51:39.399Z,98467.91
2022-12-31T19:54:06.582Z,98462.44
2022-12-31T19:56:33.146Z,98471.16
2022-12-31T19:59:07.298Z,98467.88
2022-12-31T20:01:34.197Z,98465.84
2022-12-31T20:04:00.941Z,98458.75
2022-12-31T20:06:27.577Z,98468.00
2022-12-31T20:08:54.176Z,98466.53
2022-12-31T20:11:22.447Z,98466.56
2022-12-31T20:13:50.224Z,98468.19
2022-12-31T20:16:18.376Z,98469.06
2022-12-31T20:18:47.093Z,98465.41
2022-12-31T20:21:17.865Z,98470.13
2022-12-31T20:23:44.682Z,98463.63
2022-12-31T20:26:11.486Z,98465.84
2022-12-31T20:28:38.521Z,98471.88
2022-12-31T20:31:07.112Z,98475.69
2022-12-31T20:33:34.682Z,98481.59
2022-12-31T20:36:03.144Z,98477.19
2022-12-31T20:38:29.694Z,98471.13
2022-12-31T20:41:02.701Z,98473.78
2022-12-31T20:43:33.296Z,98467.47
2022-12-31T20:46:12.438Z,98461.28
2022-12-31T20:48:41.521Z,98466.69
2022-12-31T20:51:08.246Z,98461.13
2022-12-31T20:53:34.795Z,98459.81
2022-12-31T20:56:09.493Z,98461.56
2022-12-31T20:58:36.762Z,98468.78
2022-12-31T21:01:10.016Z,98465.38
2022-12-31T21:06:25.634Z,98467.31
2022-12-31T21:08:52.268Z,98471.31
2022-12-31T21:11:37.548Z,98468.63
2022-12-31T21:14:04.305Z,98471.28
2022-12-31T21:16:31.010Z,98476.41
2022-12-31T21:18:58.020Z,98465.06
2022-12-31T21:21:24.626Z,98477.56
2022-12-31T21:23:51.536Z,98467.44
2022-12-31T21:26:18.358Z,98470.97
2022-12-31T21:28:45.115Z,98474.66
2022-12-31T21:31:13.349Z,98478.44
2022-12-31T21:33:40.470Z,98477.41
2022-12-31T21:36:07.758Z,98483.47
2022-12-31T21:38:36.340Z,98481.69
2022-12-31T21:41:04.500Z,98479.16
2022-12-31T21:43:31.142Z,98479.78
2022-12-31T21:46:07.004Z,98483.16
2022-12-31T21:48:33.937Z,98486.91
2022-12-31T21:51:13.156Z,98489.28
2022-12-31T21:53:40.333Z,98493.56
2022-12-31T21:56:08.476Z,98495.81
2022-12-31T21:59:13.491Z,98500.16
2022-12-31T22:01:58.873Z,98499.38
2022-12-31T22:05:00.535Z,98501.16
2022-12-31T22:07:12.313Z,98502.94
2022-12-31T22:09:38.850Z,98512.16
2022-12-31T22:12:05.804Z,98520.00
2022-12-31T22:14:32.562Z,98518.69
2022-12-31T22:16:59.093Z,98516.50
2022-12-31T22:19:26.023Z,98510.53
2022-12-31T22:21:52.578Z,98521.38
2022-12-31T22:24:19.137Z,98517.59
2022-12-31T22:26:46.946Z,98513.63
2022-12-31T22:29:14.029Z,98519.63
2022-12-31T22:31:40.640Z,98520.34
2022-12-31T22:34:07.339Z,98515.44
2022-12-31T22:36:34.756Z,98512.91
2022-12-31T22:39:01.390Z,98504.44
2022-12-31T22:41:28.694Z,98515.28
2022-12-31T22:44:03.184Z,98528.03
2022-12-31T22:46:31.309Z,98537.28
2022-12-31T22:48:59.517Z,98538.84
2022-12-31T22:51:56.669Z,98546.97
2022-12-31T22:54:14.513Z,98548.56
2022-12-31T22:56:41.277Z,98554.56
2022-12-31T22:59:08.003Z,98547.59
2022-12-31T23:01:34.680Z,98545.44
2022-12-31T23:04:01.387Z,98547.75
2022-12-31T23:06:29.013Z,98541.50
2022-12-31T23:09:14.231Z,98546.28
2022-12-31T23:11:41.190Z,98549.63
2022-12-31T23:14:28.884Z,98545.91
2022-12-31T23:17:30.039Z,98553.97
2022-12-31T23:20:17.061Z,98542.88
2022-12-31T23:23:01.928Z,98549.47
2022-12-31T23:25:31.910Z,98554.59
2022-12-31T23:27:58.630Z,98551.41
2022-12-31T23:30:25.292Z,98551.88
2022-12-31T23:32:51.878Z,98559.84
2022-12-31T23:35:18.371Z,98558.94
2022-12-31T23:37:45.040Z,98551.94
2022-12-31T23:40:17.230Z,98556.28
2022-12-31T23:42:47.388Z,98556.72
2022-12-31T23:45:13.925Z,98553.34
2022-12-31T23:47:40.538Z,98553.59
2022-12-31T23:50:07.826Z,98559.00
2022-12-31T23:52:34.427Z,98562.78
2022-12-31T23:55:01.041Z,98561.00
2022-12-31T23:57:27.581Z,98558.19
2022-12-31T23:59:54.119Z,98559.53
